sensor_id;sensor_type;location;lat;lon;timestamp;P1;durP1;ratioP1;P2;durP2;ratioP2
18140;SDS011;9196;49.194;12.526;2023-10-08T00:01:09;6.67;;;3.43;;
18140;SDS011;9196;49.194;12.526;2023-10-08T00:03:39;6.00;;;3.60;;
18140;SDS011;9196;49.194;12.526;2023-10-08T00:06:13;4.97;;;3.37;;
18140;SDS011;9196;49.194;12.526;2023-10-08T00:08:40;6.03;;;3.80;;
18140;SDS011;9196;49.194;12.526;2023-10-08T00:11:07;6.83;;;3.40;;
18140;SDS011;9196;49.194;12.526;2023-10-08T00:13:36;4.40;;;3.77;;
18140;SDS011;9196;49.194;12.526;2023-10-08T00:16:05;4.70;;;3.60;;
18140;SDS011;9196;49.194;12.526;2023-10-08T00:18:36;7.13;;;3.30;;
18140;SDS011;9196;49.194;12.526;2023-10-08T00:21:05;6.30;;;3.67;;
18140;SDS011;9196;49.194;12.526;2023-10-08T00:23:42;6.33;;;3.20;;
18140;SDS011;9196;49.194;12.526;2023-10-08T00:26:17;4.53;;;3.00;;
18140;SDS011;9196;49.194;12.526;2023-10-08T00:28:52;8.93;;;3.67;;
18140;SDS011;9196;49.194;12.526;2023-10-08T00:31:22;7.20;;;4.50;;
18140;SDS011;9196;49.194;12.526;2023-10-08T00:33:57;4.43;;;3.27;;
18140;SDS011;9196;49.194;12.526;2023-10-08T00:36:24;5.47;;;3.43;;
18140;SDS011;9196;49.194;12.526;2023-10-08T00:38:51;7.20;;;4.20;;
18140;SDS011;9196;49.194;12.526;2023-10-08T00:41:20;3.80;;;3.10;;
18140;SDS011;9196;49.194;12.526;2023-10-08T00:43:47;9.83;;;4.07;;
18140;SDS011;9196;49.194;12.526;2023-10-08T00:46:16;6.60;;;3.40;;
18140;SDS011;9196;49.194;12.526;2023-10-08T00:48:48;7.33;;;3.57;;
18140;SDS011;9196;49.194;12.526;2023-10-08T00:51:18;3.70;;;2.87;;
18140;SDS011;9196;49.194;12.526;2023-10-08T00:53:57;3.07;;;2.77;;
18140;SDS011;9196;49.194;12.526;2023-10-08T00:56:36;7.57;;;3.60;;
18140;SDS011;9196;49.194;12.526;2023-10-08T00:59:18;4.93;;;3.70;;
18140;SDS011;9196;49.194;12.526;2023-10-08T01:01:47;4.50;;;3.30;;
18140;SDS011;9196;49.194;12.526;2023-10-08T01:04:17;6.57;;;3.77;;
18140;SDS011;9196;49.194;12.526;2023-10-08T01:06:48;5.33;;;3.30;;
18140;SDS011;9196;49.194;12.526;2023-10-08T01:09:20;12.00;;;4.00;;
18140;SDS011;9196;49.194;12.526;2023-10-08T01:12:06;8.23;;;3.70;;
18140;SDS011;9196;49.194;12.526;2023-10-08T01:14:37;6.03;;;4.50;;
18140;SDS011;9196;49.194;12.526;2023-10-08T01:17:07;6.27;;;3.80;;
18140;SDS011;9196;49.194;12.526;2023-10-08T01:19:34;6.60;;;3.73;;
18140;SDS011;9196;49.194;12.526;2023-10-08T01:22:08;3.53;;;3.10;;
18140;SDS011;9196;49.194;12.526;2023-10-08T01:24:41;9.17;;;3.77;;
18140;SDS011;9196;49.194;12.526;2023-10-08T01:27:09;9.40;;;4.43;;
18140;SDS011;9196;49.194;12.526;2023-10-08T01:29:37;9.33;;;3.73;;
18140;SDS011;9196;49.194;12.526;2023-10-08T01:32:04;9.50;;;3.87;;
18140;SDS011;9196;49.194;12.526;2023-10-08T01:34:36;4.93;;;3.23;;
18140;SDS011;9196;49.194;12.526;2023-10-08T01:37:04;4.80;;;3.13;;
18140;SDS011;9196;49.194;12.526;2023-10-08T01:39:36;8.07;;;3.97;;
18140;SDS011;9196;49.194;12.526;2023-10-08T01:42:04;9.57;;;4.07;;
18140;SDS011;9196;49.194;12.526;2023-10-08T01:44:32;5.10;;;3.07;;
18140;SDS011;9196;49.194;12.526;2023-10-08T01:47:00;4.77;;;3.40;;
18140;SDS011;9196;49.194;12.526;2023-10-08T01:49:29;9.00;;;4.33;;
18140;SDS011;9196;49.194;12.526;2023-10-08T01:51:58;7.63;;;3.60;;
18140;SDS011;9196;49.194;12.526;2023-10-08T01:54:30;7.53;;;3.10;;
18140;SDS011;9196;49.194;12.526;2023-10-08T01:57:02;7.43;;;3.37;;
18140;SDS011;9196;49.194;12.526;2023-10-08T01:59:31;3.60;;;2.90;;
18140;SDS011;9196;49.194;12.526;2023-10-08T02:01:58;8.13;;;3.70;;
18140;SDS011;9196;49.194;12.526;2023-10-08T02:04:25;7.37;;;3.83;;
18140;SDS011;9196;49.194;12.526;2023-10-08T02:06:52;7.23;;;3.30;;
18140;SDS011;9196;49.194;12.526;2023-10-08T02:09:19;6.43;;;3.67;;
18140;SDS011;9196;49.194;12.526;2023-10-08T02:11:51;7.60;;;3.50;;
18140;SDS011;9196;49.194;12.526;2023-10-08T02:14:21;7.73;;;3.67;;
18140;SDS011;9196;49.194;12.526;2023-10-08T02:16:48;16.80;;;3.67;;
18140;SDS011;9196;49.194;12.526;2023-10-08T02:19:17;12.60;;;4.90;;
18140;SDS011;9196;49.194;12.526;2023-10-08T02:21:51;6.10;;;3.57;;
18140;SDS011;9196;49.194;12.526;2023-10-08T02:24:19;6.93;;;3.23;;
18140;SDS011;9196;49.194;12.526;2023-10-08T02:26:49;5.40;;;3.47;;
18140;SDS011;9196;49.194;12.526;2023-10-08T02:29:17;3.83;;;3.37;;
18140;SDS011;9196;49.194;12.526;2023-10-08T02:31:45;5.20;;;3.70;;
18140;SDS011;9196;49.194;12.526;2023-10-08T02:34:12;7.20;;;3.57;;
18140;SDS011;9196;49.194;12.526;2023-10-08T02:36:40;3.47;;;2.83;;
18140;SDS011;9196;49.194;12.526;2023-10-08T02:39:07;4.63;;;2.80;;
18140;SDS011;9196;49.194;12.526;2023-10-08T02:41:41;4.37;;;3.23;;
18140;SDS011;9196;49.194;12.526;2023-10-08T02:44:11;13.10;;;4.50;;
18140;SDS011;9196;49.194;12.526;2023-10-08T02:46:39;6.83;;;3.87;;
18140;SDS011;9196;49.194;12.526;2023-10-08T02:49:08;5.97;;;3.23;;
18140;SDS011;9196;49.194;12.526;2023-10-08T02:51:37;3.47;;;3.10;;
18140;SDS011;9196;49.194;12.526;2023-10-08T02:54:06;5.73;;;4.03;;
18140;SDS011;9196;49.194;12.526;2023-10-08T02:56:41;3.07;;;2.77;;
18140;SDS011;9196;49.194;12.526;2023-10-08T02:59:09;5.37;;;3.23;;
18140;SDS011;9196;49.194;12.526;2023-10-08T03:01:37;4.67;;;3.03;;
18140;SDS011;9196;49.194;12.526;2023-10-08T03:04:05;5.30;;;3.13;;
18140;SDS011;9196;49.194;12.526;2023-10-08T03:06:41;5.87;;;2.97;;
18140;SDS011;9196;49.194;12.526;2023-10-08T03:09:08;7.10;;;3.90;;
18140;SDS011;9196;49.194;12.526;2023-10-08T03:11:35;3.57;;;3.10;;
18140;SDS011;9196;49.194;12.526;2023-10-08T03:14:02;4.00;;;2.93;;
18140;SDS011;9196;49.194;12.526;2023-10-08T03:16:29;4.57;;;3.10;;
18140;SDS011;9196;49.194;12.526;2023-10-08T03:19:00;6.50;;;3.80;;
18140;SDS011;9196;49.194;12.526;2023-10-08T03:21:31;5.40;;;3.60;;
18140;SDS011;9196;49.194;12.526;2023-10-08T03:24:15;8.43;;;3.70;;
18140;SDS011;9196;49.194;12.526;2023-10-08T03:27:02;8.13;;;3.17;;
18140;SDS011;9196;49.194;12.526;2023-10-08T03:29:37;7.37;;;3.70;;
18140;SDS011;9196;49.194;12.526;2023-10-08T03:32:07;4.53;;;3.10;;
18140;SDS011;9196;49.194;12.526;2023-10-08T03:34:38;5.43;;;3.90;;
18140;SDS011;9196;49.194;12.526;2023-10-08T03:37:08;6.00;;;3.37;;
18140;SDS011;9196;49.194;12.526;2023-10-08T03:39:37;5.67;;;3.23;;
18140;SDS011;9196;49.194;12.526;2023-10-08T03:42:26;4.00;;;2.90;;
18140;SDS011;9196;49.194;12.526;2023-10-08T03:45:05;8.83;;;5.87;;
18140;SDS011;9196;49.194;12.526;2023-10-08T03:47:37;8.60;;;4.63;;
18140;SDS011;9196;49.194;12.526;2023-10-08T03:50:05;8.97;;;3.80;;
18140;SDS011;9196;49.194;12.526;2023-10-08T03:52:34;4.60;;;3.70;;
18140;SDS011;9196;49.194;12.526;2023-10-08T03:55:05;7.30;;;3.37;;
18140;SDS011;9196;49.194;12.526;2023-10-08T03:57:51;4.50;;;3.03;;
18140;SDS011;9196;49.194;12.526;2023-10-08T04:00:23;4.93;;;3.27;;
18140;SDS011;9196;49.194;12.526;2023-10-08T04:02:56;8.20;;;3.23;;
18140;SDS011;9196;49.194;12.526;2023-10-08T04:05:26;7.67;;;4.03;;
18140;SDS011;9196;49.194;12.526;2023-10-08T04:07:58;5.63;;;3.40;;
18140;SDS011;9196;49.194;12.526;2023-10-08T04:10:43;9.33;;;3.00;;
18140;SDS011;9196;49.194;12.526;2023-10-08T04:13:29;5.57;;;3.90;;
18140;SDS011;9196;49.194;12.526;2023-10-08T04:15:56;3.87;;;2.40;;
18140;SDS011;9196;49.194;12.526;2023-10-08T04:18:24;6.87;;;3.40;;
18140;SDS011;9196;49.194;12.526;2023-10-08T04:20:51;5.57;;;3.33;;
18140;SDS011;9196;49.194;12.526;2023-10-08T04:23:29;10.00;;;5.00;;
18140;SDS011;9196;49.194;12.526;2023-10-08T04:25:58;9.60;;;3.83;;
18140;SDS011;9196;49.194;12.526;2023-10-08T04:28:25;17.60;;;10.93;;
18140;SDS011;9196;49.194;12.526;2023-10-08T04:30:59;7.40;;;4.30;;
18140;SDS011;9196;49.194;12.526;2023-10-08T04:33:39;5.37;;;3.57;;
18140;SDS011;9196;49.194;12.526;2023-10-08T04:36:08;9.90;;;3.40;;
18140;SDS011;9196;49.194;12.526;2023-10-08T04:38:35;6.63;;;3.40;;
18140;SDS011;9196;49.194;12.526;2023-10-08T04:41:06;3.93;;;2.80;;
18140;SDS011;9196;49.194;12.526;2023-10-08T04:43:35;6.97;;;3.30;;
18140;SDS011;9196;49.194;12.526;2023-10-08T04:46:04;6.40;;;3.97;;
18140;SDS011;9196;49.194;12.526;2023-10-08T04:48:43;9.23;;;4.10;;
18140;SDS011;9196;49.194;12.526;2023-10-08T04:51:10;6.33;;;3.20;;
18140;SDS011;9196;49.194;12.526;2023-10-08T04:53:39;8.03;;;4.70;;
18140;SDS011;9196;49.194;12.526;2023-10-08T04:56:11;6.00;;;3.90;;
18140;SDS011;9196;49.194;12.526;2023-10-08T04:58:41;6.70;;;3.80;;
18140;SDS011;9196;49.194;12.526;2023-10-08T05:01:11;3.90;;;3.20;;
18140;SDS011;9196;49.194;12.526;2023-10-08T05:03:46;8.97;;;4.50;;
18140;SDS011;9196;49.194;12.526;2023-10-08T05:06:30;6.63;;;3.70;;
18140;SDS011;9196;49.194;12.526;2023-10-08T05:09:15;3.90;;;3.13;;
18140;SDS011;9196;49.194;12.526;2023-10-08T05:11:51;8.40;;;3.70;;
18140;SDS011;9196;49.194;12.526;2023-10-08T05:14:36;9.20;;;3.87;;
18140;SDS011;9196;49.194;12.526;2023-10-08T05:17:10;9.30;;;3.70;;
18140;SDS011;9196;49.194;12.526;2023-10-08T05:19:47;6.90;;;2.83;;
18140;SDS011;9196;49.194;12.526;2023-10-08T05:22:26;8.33;;;2.93;;
18140;SDS011;9196;49.194;12.526;2023-10-08T05:25:20;8.27;;;5.20;;
18140;SDS011;9196;49.194;12.526;2023-10-08T05:28:06;8.20;;;4.30;;
18140;SDS011;9196;49.194;12.526;2023-10-08T05:30:36;7.90;;;3.80;;
18140;SDS011;9196;49.194;12.526;2023-10-08T05:33:07;4.40;;;3.27;;
18140;SDS011;9196;49.194;12.526;2023-10-08T05:35:51;7.00;;;3.77;;
18140;SDS011;9196;49.194;12.526;2023-10-08T05:38:27;8.17;;;3.80;;
18140;SDS011;9196;49.194;12.526;2023-10-08T05:41:13;7.57;;;3.50;;
18140;SDS011;9196;49.194;12.526;2023-10-08T05:43:54;7.60;;;3.57;;
18140;SDS011;9196;49.194;12.526;2023-10-08T05:46:38;6.37;;;3.80;;
18140;SDS011;9196;49.194;12.526;2023-10-08T05:49:12;15.63;;;3.50;;
18140;SDS011;9196;49.194;12.526;2023-10-08T05:51:51;5.77;;;3.43;;
18140;SDS011;9196;49.194;12.526;2023-10-08T05:54:47;7.80;;;3.60;;
18140;SDS011;9196;49.194;12.526;2023-10-08T05:57:39;7.07;;;3.50;;
18140;SDS011;9196;49.194;12.526;2023-10-08T06:00:13;5.70;;;3.90;;
18140;SDS011;9196;49.194;12.526;2023-10-08T06:02:58;5.70;;;3.50;;
18140;SDS011;9196;49.194;12.526;2023-10-08T06:05:37;3.77;;;3.40;;
18140;SDS011;9196;49.194;12.526;2023-10-08T06:08:29;4.47;;;3.03;;
18140;SDS011;9196;49.194;12.526;2023-10-08T06:11:14;8.77;;;3.70;;
18140;SDS011;9196;49.194;12.526;2023-10-08T06:13:52;8.60;;;3.60;;
18140;SDS011;9196;49.194;12.526;2023-10-08T06:16:27;6.20;;;3.70;;
18140;SDS011;9196;49.194;12.526;2023-10-08T06:19:08;5.97;;;3.00;;
18140;SDS011;9196;49.194;12.526;2023-10-08T06:21:38;4.10;;;3.10;;
18140;SDS011;9196;49.194;12.526;2023-10-08T06:24:06;6.83;;;3.73;;
18140;SDS011;9196;49.194;12.526;2023-10-08T06:26:37;8.23;;;3.77;;
18140;SDS011;9196;49.194;12.526;2023-10-08T06:29:12;9.63;;;3.50;;
18140;SDS011;9196;49.194;12.526;2023-10-08T06:31:53;5.23;;;3.53;;
18140;SDS011;9196;49.194;12.526;2023-10-08T06:34:21;5.53;;;3.70;;
18140;SDS011;9196;49.194;12.526;2023-10-08T06:36:50;10.13;;;3.43;;
18140;SDS011;9196;49.194;12.526;2023-10-08T06:39:19;14.33;;;3.83;;
18140;SDS011;9196;49.194;12.526;2023-10-08T06:41:51;7.20;;;3.30;;
18140;SDS011;9196;49.194;12.526;2023-10-08T06:44:19;6.10;;;3.30;;
18140;SDS011;9196;49.194;12.526;2023-10-08T06:46:46;5.53;;;3.77;;
18140;SDS011;9196;49.194;12.526;2023-10-08T06:49:19;11.87;;;4.60;;
18140;SDS011;9196;49.194;12.526;2023-10-08T06:51:48;5.30;;;3.30;;
18140;SDS011;9196;49.194;12.526;2023-10-08T06:54:16;10.57;;;3.80;;
18140;SDS011;9196;49.194;12.526;2023-10-08T06:56:43;14.03;;;4.40;;
18140;SDS011;9196;49.194;12.526;2023-10-08T06:59:16;7.33;;;3.97;;
18140;SDS011;9196;49.194;12.526;2023-10-08T07:01:44;6.83;;;3.90;;
18140;SDS011;9196;49.194;12.526;2023-10-08T07:04:12;10.50;;;4.13;;
18140;SDS011;9196;49.194;12.526;2023-10-08T07:06:41;5.67;;;4.00;;
18140;SDS011;9196;49.194;12.526;2023-10-08T07:09:10;7.80;;;4.87;;
18140;SDS011;9196;49.194;12.526;2023-10-08T07:11:47;5.77;;;3.33;;
18140;SDS011;9196;49.194;12.526;2023-10-08T07:14:19;10.73;;;3.37;;
18140;SDS011;9196;49.194;12.526;2023-10-08T07:16:47;7.57;;;3.50;;
18140;SDS011;9196;49.194;12.526;2023-10-08T07:19:17;7.23;;;3.80;;
18140;SDS011;9196;49.194;12.526;2023-10-08T07:21:46;7.70;;;3.80;;
18140;SDS011;9196;49.194;12.526;2023-10-08T07:24:14;14.17;;;3.70;;
18140;SDS011;9196;49.194;12.526;2023-10-08T07:26:42;4.50;;;3.70;;
18140;SDS011;9196;49.194;12.526;2023-10-08T07:29:12;9.03;;;3.60;;
18140;SDS011;9196;49.194;12.526;2023-10-08T07:31:42;5.47;;;3.67;;
18140;SDS011;9196;49.194;12.526;2023-10-08T07:34:13;15.60;;;4.30;;
18140;SDS011;9196;49.194;12.526;2023-10-08T07:36:52;8.30;;;4.00;;
18140;SDS011;9196;49.194;12.526;2023-10-08T07:39:22;6.90;;;4.13;;
18140;SDS011;9196;49.194;12.526;2023-10-08T07:41:59;14.17;;;3.40;;
18140;SDS011;9196;49.194;12.526;2023-10-08T07:44:26;5.50;;;3.67;;
18140;SDS011;9196;49.194;12.526;2023-10-08T07:46:54;5.17;;;3.57;;
18140;SDS011;9196;49.194;12.526;2023-10-08T07:49:21;5.53;;;3.73;;
18140;SDS011;9196;49.194;12.526;2023-10-08T07:51:48;6.30;;;3.53;;
18140;SDS011;9196;49.194;12.526;2023-10-08T07:54:20;5.70;;;3.27;;
18140;SDS011;9196;49.194;12.526;2023-10-08T07:56:48;6.30;;;4.47;;
18140;SDS011;9196;49.194;12.526;2023-10-08T07:59:16;7.87;;;4.60;;
18140;SDS011;9196;49.194;12.526;2023-10-08T08:01:43;6.80;;;4.10;;
18140;SDS011;9196;49.194;12.526;2023-10-08T08:04:10;7.03;;;3.53;;
18140;SDS011;9196;49.194;12.526;2023-10-08T08:06:46;14.30;;;4.93;;
18140;SDS011;9196;49.194;12.526;2023-10-08T08:09:15;10.80;;;4.17;;
18140;SDS011;9196;49.194;12.526;2023-10-08T08:11:46;10.37;;;4.50;;
18140;SDS011;9196;49.194;12.526;2023-10-08T08:14:14;7.30;;;3.43;;
18140;SDS011;9196;49.194;12.526;2023-10-08T08:16:43;6.20;;;3.80;;
18140;SDS011;9196;49.194;12.526;2023-10-08T08:19:13;7.40;;;4.30;;
18140;SDS011;9196;49.194;12.526;2023-10-08T08:21:42;5.90;;;3.87;;
18140;SDS011;9196;49.194;12.526;2023-10-08T08:24:10;7.43;;;5.10;;
18140;SDS011;9196;49.194;12.526;2023-10-08T08:26:38;6.57;;;3.57;;
18140;SDS011;9196;49.194;12.526;2023-10-08T08:29:11;4.10;;;3.10;;
18140;SDS011;9196;49.194;12.526;2023-10-08T08:31:40;9.83;;;3.47;;
18140;SDS011;9196;49.194;12.526;2023-10-08T08:34:11;6.80;;;3.97;;
18140;SDS011;9196;49.194;12.526;2023-10-08T08:36:44;7.77;;;4.10;;
18140;SDS011;9196;49.194;12.526;2023-10-08T08:39:14;10.27;;;4.00;;
18140;SDS011;9196;49.194;12.526;2023-10-08T08:41:54;6.50;;;3.60;;
18140;SDS011;9196;49.194;12.526;2023-10-08T08:44:28;8.77;;;4.97;;
18140;SDS011;9196;49.194;12.526;2023-10-08T08:46:57;5.43;;;4.10;;
18140;SDS011;9196;49.194;12.526;2023-10-08T08:49:29;9.20;;;3.87;;
18140;SDS011;9196;49.194;12.526;2023-10-08T08:51:59;6.57;;;3.70;;
18140;SDS011;9196;49.194;12.526;2023-10-08T08:54:26;6.23;;;3.90;;
18140;SDS011;9196;49.194;12.526;2023-10-08T08:56:55;7.53;;;4.90;;
18140;SDS011;9196;49.194;12.526;2023-10-08T08:59:23;12.27;;;5.43;;
18140;SDS011;9196;49.194;12.526;2023-10-08T09:01:52;4.80;;;4.30;;
18140;SDS011;9196;49.194;12.526;2023-10-08T09:04:27;6.63;;;4.00;;
18140;SDS011;9196;49.194;12.526;2023-10-08T09:06:56;9.10;;;4.73;;
18140;SDS011;9196;49.194;12.526;2023-10-08T09:09:25;13.40;;;4.30;;
18140;SDS011;9196;49.194;12.526;2023-10-08T09:11:57;10.23;;;4.90;;
18140;SDS011;9196;49.194;12.526;2023-10-08T09:14:25;5.40;;;4.47;;
18140;SDS011;9196;49.194;12.526;2023-10-08T09:16:56;6.90;;;4.17;;
18140;SDS011;9196;49.194;12.526;2023-10-08T09:19:24;8.60;;;4.40;;
18140;SDS011;9196;49.194;12.526;2023-10-08T09:22:01;11.33;;;4.13;;
18140;SDS011;9196;49.194;12.526;2023-10-08T09:24:30;6.50;;;4.00;;
18140;SDS011;9196;49.194;12.526;2023-10-08T09:26:58;9.03;;;4.17;;
18140;SDS011;9196;49.194;12.526;2023-10-08T09:29:27;9.07;;;4.10;;
18140;SDS011;9196;49.194;12.526;2023-10-08T09:31:57;10.57;;;4.17;;
18140;SDS011;9196;49.194;12.526;2023-10-08T09:34:27;5.23;;;3.00;;
18140;SDS011;9196;49.194;12.526;2023-10-08T09:36:56;5.60;;;3.70;;
18140;SDS011;9196;49.194;12.526;2023-10-08T09:39:25;8.10;;;3.73;;
18140;SDS011;9196;49.194;12.526;2023-10-08T09:41:53;6.93;;;4.50;;
18140;SDS011;9196;49.194;12.526;2023-10-08T09:44:21;9.07;;;4.80;;
18140;SDS011;9196;49.194;12.526;2023-10-08T09:46:51;9.30;;;4.50;;
18140;SDS011;9196;49.194;12.526;2023-10-08T09:49:21;12.30;;;4.50;;
18140;SDS011;9196;49.194;12.526;2023-10-08T09:51:57;6.03;;;3.80;;
18140;SDS011;9196;49.194;12.526;2023-10-08T09:54:28;7.60;;;5.03;;
18140;SDS011;9196;49.194;12.526;2023-10-08T09:56:58;10.07;;;4.60;;
18140;SDS011;9196;49.194;12.526;2023-10-08T09:59:28;8.03;;;3.97;;
18140;SDS011;9196;49.194;12.526;2023-10-08T10:01:55;12.50;;;4.43;;
18140;SDS011;9196;49.194;12.526;2023-10-08T10:04:26;13.53;;;5.27;;
18140;SDS011;9196;49.194;12.526;2023-10-08T10:06:57;12.03;;;4.10;;
18140;SDS011;9196;49.194;12.526;2023-10-08T10:09:24;4.83;;;3.23;;
18140;SDS011;9196;49.194;12.526;2023-10-08T10:11:53;7.40;;;4.40;;
18140;SDS011;9196;49.194;12.526;2023-10-08T10:14:22;5.23;;;4.03;;
18140;SDS011;9196;49.194;12.526;2023-10-08T10:16:55;9.83;;;4.70;;
18140;SDS011;9196;49.194;12.526;2023-10-08T10:19:37;11.60;;;4.10;;
18140;SDS011;9196;49.194;12.526;2023-10-08T10:22:10;6.80;;;4.10;;
18140;SDS011;9196;49.194;12.526;2023-10-08T10:24:41;7.90;;;5.30;;
18140;SDS011;9196;49.194;12.526;2023-10-08T10:27:10;12.00;;;4.00;;
18140;SDS011;9196;49.194;12.526;2023-10-08T10:29:39;9.27;;;4.77;;
18140;SDS011;9196;49.194;12.526;2023-10-08T10:32:09;7.20;;;4.20;;
18140;SDS011;9196;49.194;12.526;2023-10-08T10:34:39;7.03;;;4.30;;
18140;SDS011;9196;49.194;12.526;2023-10-08T10:37:07;7.37;;;4.20;;
18140;SDS011;9196;49.194;12.526;2023-10-08T10:39:50;8.87;;;4.50;;
18140;SDS011;9196;49.194;12.526;2023-10-08T10:42:20;8.87;;;5.30;;
18140;SDS011;9196;49.194;12.526;2023-10-08T10:44:47;10.43;;;4.80;;
18140;SDS011;9196;49.194;12.526;2023-10-08T10:47:18;8.07;;;4.20;;
18140;SDS011;9196;49.194;12.526;2023-10-08T10:49:54;8.60;;;3.63;;
18140;SDS011;9196;49.194;12.526;2023-10-08T10:52:36;14.27;;;4.87;;
18140;SDS011;9196;49.194;12.526;2023-10-08T10:55:11;8.07;;;4.70;;
18140;SDS011;9196;49.194;12.526;2023-10-08T10:57:56;11.40;;;5.57;;
18140;SDS011;9196;49.194;12.526;2023-10-08T11:00:29;8.53;;;4.13;;
18140;SDS011;9196;49.194;12.526;2023-10-08T11:03:22;7.37;;;4.80;;
18140;SDS011;9196;49.194;12.526;2023-10-08T11:05:52;6.50;;;3.90;;
18140;SDS011;9196;49.194;12.526;2023-10-08T11:08:24;8.60;;;4.60;;
18140;SDS011;9196;49.194;12.526;2023-10-08T11:10:59;6.70;;;3.97;;
18140;SDS011;9196;49.194;12.526;2023-10-08T11:13:32;6.17;;;3.47;;
18140;SDS011;9196;49.194;12.526;2023-10-08T11:16:04;6.50;;;4.50;;
18140;SDS011;9196;49.194;12.526;2023-10-08T11:18:32;7.57;;;4.73;;
18140;SDS011;9196;49.194;12.526;2023-10-08T11:21:07;13.23;;;5.30;;
18140;SDS011;9196;49.194;12.526;2023-10-08T11:23:43;9.33;;;4.90;;
18140;SDS011;9196;49.194;12.526;2023-10-08T11:26:24;10.13;;;4.53;;
18140;SDS011;9196;49.194;12.526;2023-10-08T11:29:04;9.97;;;5.07;;
18140;SDS011;9196;49.194;12.526;2023-10-08T11:31:39;6.90;;;3.80;;
18140;SDS011;9196;49.194;12.526;2023-10-08T11:34:06;9.60;;;4.50;;
18140;SDS011;9196;49.194;12.526;2023-10-08T11:36:39;8.43;;;4.63;;
18140;SDS011;9196;49.194;12.526;2023-10-08T11:39:18;9.07;;;4.20;;
18140;SDS011;9196;49.194;12.526;2023-10-08T11:41:55;6.87;;;3.87;;
18140;SDS011;9196;49.194;12.526;2023-10-08T11:44:22;4.90;;;3.70;;
18140;SDS011;9196;49.194;12.526;2023-10-08T11:46:55;15.33;;;5.00;;
18140;SDS011;9196;49.194;12.526;2023-10-08T11:49:29;8.13;;;5.30;;
18140;SDS011;9196;49.194;12.526;2023-10-08T11:52:02;10.70;;;4.77;;
18140;SDS011;9196;49.194;12.526;2023-10-08T11:54:29;10.77;;;4.30;;
18140;SDS011;9196;49.194;12.526;2023-10-08T11:56:58;8.47;;;4.27;;
18140;SDS011;9196;49.194;12.526;2023-10-08T11:59:27;8.83;;;4.60;;
18140;SDS011;9196;49.194;12.526;2023-10-08T12:01:54;7.20;;;4.53;;
18140;SDS011;9196;49.194;12.526;2023-10-08T12:04:21;8.07;;;5.30;;
18140;SDS011;9196;49.194;12.526;2023-10-08T12:06:48;10.23;;;5.53;;
18140;SDS011;9196;49.194;12.526;2023-10-08T12:09:18;9.37;;;4.90;;
18140;SDS011;9196;49.194;12.526;2023-10-08T12:11:46;8.97;;;4.70;;
18140;SDS011;9196;49.194;12.526;2023-10-08T12:14:13;12.73;;;5.10;;
18140;SDS011;9196;49.194;12.526;2023-10-08T12:16:40;10.90;;;5.93;;
18140;SDS011;9196;49.194;12.526;2023-10-08T12:19:10;13.83;;;5.63;;
18140;SDS011;9196;49.194;12.526;2023-10-08T12:21:42;12.10;;;6.43;;
18140;SDS011;9196;49.194;12.526;2023-10-08T12:24:11;14.33;;;5.10;;
18140;SDS011;9196;49.194;12.526;2023-10-08T12:26:40;11.40;;;6.93;;
18140;SDS011;9196;49.194;12.526;2023-10-08T12:29:10;9.13;;;4.57;;
18140;SDS011;9196;49.194;12.526;2023-10-08T12:31:39;8.27;;;5.13;;
18140;SDS011;9196;49.194;12.526;2023-10-08T12:34:06;9.20;;;4.90;;
18140;SDS011;9196;49.194;12.526;2023-10-08T12:36:36;9.20;;;5.57;;
18140;SDS011;9196;49.194;12.526;2023-10-08T12:39:03;6.80;;;3.43;;
18140;SDS011;9196;49.194;12.526;2023-10-08T12:41:41;4.30;;;2.83;;
18140;SDS011;9196;49.194;12.526;2023-10-08T12:44:09;2.77;;;2.50;;
18140;SDS011;9196;49.194;12.526;2023-10-08T12:46:36;2.70;;;2.50;;
18140;SDS011;9196;49.194;12.526;2023-10-08T12:49:03;2.80;;;2.60;;
18140;SDS011;9196;49.194;12.526;2023-10-08T12:51:30;5.83;;;2.50;;
18140;SDS011;9196;49.194;12.526;2023-10-08T12:53:58;2.37;;;2.17;;
18140;SDS011;9196;49.194;12.526;2023-10-08T12:56:29;3.97;;;1.73;;
18140;SDS011;9196;49.194;12.526;2023-10-08T12:59:02;17.23;;;2.70;;
18140;SDS011;9196;49.194;12.526;2023-10-08T13:01:31;5.53;;;2.10;;
18140;SDS011;9196;49.194;12.526;2023-10-08T13:04:00;2.47;;;2.27;;
18140;SDS011;9196;49.194;12.526;2023-10-08T13:06:32;2.33;;;2.13;;
18140;SDS011;9196;49.194;12.526;2023-10-08T13:09:02;2.47;;;2.33;;
18140;SDS011;9196;49.194;12.526;2023-10-08T13:11:34;2.93;;;1.77;;
18140;SDS011;9196;49.194;12.526;2023-10-08T13:14:05;1.97;;;1.87;;
18140;SDS011;9196;49.194;12.526;2023-10-08T13:16:32;1.93;;;1.83;;
18140;SDS011;9196;49.194;12.526;2023-10-08T13:19:02;2.27;;;2.17;;
18140;SDS011;9196;49.194;12.526;2023-10-08T13:21:33;4.77;;;2.50;;
18140;SDS011;9196;49.194;12.526;2023-10-08T13:24:04;6.23;;;2.30;;
18140;SDS011;9196;49.194;12.526;2023-10-08T13:26:42;2.30;;;2.20;;
18140;SDS011;9196;49.194;12.526;2023-10-08T13:29:14;2.30;;;2.10;;
18140;SDS011;9196;49.194;12.526;2023-10-08T13:31:43;1.70;;;1.60;;
18140;SDS011;9196;49.194;12.526;2023-10-08T13:34:11;1.83;;;1.10;;
18140;SDS011;9196;49.194;12.526;2023-10-08T13:36:38;6.00;;;1.43;;
18140;SDS011;9196;49.194;12.526;2023-10-08T13:39:05;1.27;;;1.27;;
18140;SDS011;9196;49.194;12.526;2023-10-08T13:41:34;1.60;;;1.40;;
18140;SDS011;9196;49.194;12.526;2023-10-08T13:44:03;1.13;;;1.13;;
18140;SDS011;9196;49.194;12.526;2023-10-08T13:46:32;1.40;;;1.30;;
18140;SDS011;9196;49.194;12.526;2023-10-08T13:49:01;1.60;;;1.50;;
18140;SDS011;9196;49.194;12.526;2023-10-08T13:51:30;1.67;;;1.57;;
18140;SDS011;9196;49.194;12.526;2023-10-08T13:54:00;1.50;;;1.40;;
18140;SDS011;9196;49.194;12.526;2023-10-08T13:56:28;1.23;;;1.23;;
18140;SDS011;9196;49.194;12.526;2023-10-08T13:58:56;1.27;;;1.17;;
18140;SDS011;9196;49.194;12.526;2023-10-08T14:01:29;1.17;;;1.17;;
18140;SDS011;9196;49.194;12.526;2023-10-08T14:04:00;1.10;;;1.10;;
18140;SDS011;9196;49.194;12.526;2023-10-08T14:06:30;0.90;;;0.90;;
18140;SDS011;9196;49.194;12.526;2023-10-08T14:08:57;1.03;;;0.87;;
18140;SDS011;9196;49.194;12.526;2023-10-08T14:11:25;1.20;;;1.20;;
18140;SDS011;9196;49.194;12.526;2023-10-08T14:13:55;1.00;;;1.00;;
18140;SDS011;9196;49.194;12.526;2023-10-08T14:16:23;0.90;;;0.90;;
18140;SDS011;9196;49.194;12.526;2023-10-08T14:18:54;1.00;;;1.00;;
18140;SDS011;9196;49.194;12.526;2023-10-08T14:21:26;1.07;;;1.07;;
18140;SDS011;9196;49.194;12.526;2023-10-08T14:23:55;0.90;;;0.90;;
18140;SDS011;9196;49.194;12.526;2023-10-08T14:26:27;1.37;;;1.27;;
18140;SDS011;9196;49.194;12.526;2023-10-08T14:29:00;0.80;;;0.80;;
18140;SDS011;9196;49.194;12.526;2023-10-08T14:31:33;0.90;;;0.90;;
18140;SDS011;9196;49.194;12.526;2023-10-08T14:34:03;1.00;;;1.00;;
18140;SDS011;9196;49.194;12.526;2023-10-08T14:36:55;1.10;;;1.10;;
18140;SDS011;9196;49.194;12.526;2023-10-08T14:39:39;1.30;;;1.30;;
18140;SDS011;9196;49.194;12.526;2023-10-08T14:42:26;2.00;;;1.40;;
18140;SDS011;9196;49.194;12.526;2023-10-08T14:45:16;1.50;;;1.50;;
18140;SDS011;9196;49.194;12.526;2023-10-08T14:47:44;1.60;;;1.50;;
18140;SDS011;9196;49.194;12.526;2023-10-08T14:50:11;2.00;;;1.90;;
18140;SDS011;9196;49.194;12.526;2023-10-08T14:52:42;1.10;;;1.10;;
18140;SDS011;9196;49.194;12.526;2023-10-08T14:55:09;1.20;;;1.10;;
18140;SDS011;9196;49.194;12.526;2023-10-08T14:57:36;1.53;;;1.53;;
18140;SDS011;9196;49.194;12.526;2023-10-08T15:00:04;2.73;;;2.63;;
18140;SDS011;9196;49.194;12.526;2023-10-08T15:02:31;4.80;;;4.40;;
18140;SDS011;9196;49.194;12.526;2023-10-08T15:04:58;7.07;;;6.37;;
18140;SDS011;9196;49.194;12.526;2023-10-08T15:07:26;21.50;;;10.27;;
18140;SDS011;9196;49.194;12.526;2023-10-08T15:09:54;6.30;;;5.00;;
18140;SDS011;9196;49.194;12.526;2023-10-08T15:12:22;11.60;;;7.03;;